map of KLNL home
Great Circle Mapper logo
KLNL - Airport
Location
City:  Land O' Lakes, Wisconsin, United States
Name:Kings Land O' Lakes Airport
ICAO:KLNL
FAA:LNL

Details
Type:Airport (Airfield)
Use:Public/Civil
Latitude:4609'15"N (46.154117)
Longitude:8912'43"W (-89.211964)
Datum:WGS 1984
Elevation:1705 ft (520 m)
Variation:3.25W (WMM2015 magnetic declination)
-0.04 annual change
Runways:2
Longest:4001 × 75 ft (1220 × 23 m), paved

Time
Time Zone:UTC-6 (DST-5)
Local Time:

Weather
METAR:KLNL 291535Z AUTO 32008G16KT 3SM UP OVC010 M02/M04 A2991 RMK AO2 T10231038

Related Locations
Nearby:
Farthest:MGV: 10907 mi / 17554 km
Margaret River, WA, AU

Find:

   beyond  
but within

Other Information
Maps:
NOTAMs:
Links:
Sources:

  
flag of United States
flag of Wisconsin
  

Sectional Chart

Flight Planning
at skyvector.com

Satellite Image

Google Maps Satellite View

 

Copyright © 2004-2015 Karl L. Swartz. All rights reserved.
The Great Circle Mapper name and logo are trademarks of the Great Circle Mapper.
All other trademarks mentioned herein belong to their respective owners.
Please see credits for attibutions and further copyright information.

  Follow gcmap on Facebook Follow gcmap on Twitter

hCard Microformat

Geo Microformat